sensor_id;sensor_type;location;lat;lon;timestamp;temperature;humidity
67603;DHT22;54417;47.454;18.918;2024-02-28T00:01:23;9.09;93.19
67603;DHT22;54417;47.454;18.918;2024-02-28T00:06:32;9.10;93.24
67603;DHT22;54417;47.454;18.918;2024-02-28T00:11:44;9.12;93.54
67603;DHT22;54417;47.454;18.918;2024-02-28T00:16:53;9.23;93.42
67603;DHT22;54417;47.454;18.918;2024-02-28T00:21:57;9.15;93.26
67603;DHT22;54417;47.454;18.918;2024-02-28T00:27:09;9.06;93.20
67603;DHT22;54417;47.454;18.918;2024-02-28T00:32:17;9.02;92.99
67603;DHT22;54417;47.454;18.918;2024-02-28T00:37:26;9.09;93.10
67603;DHT22;54417;47.454;18.918;2024-02-28T00:42:36;9.16;93.05
67603;DHT22;54417;47.454;18.918;2024-02-28T00:47:42;9.15;93.00
67603;DHT22;54417;47.454;18.918;2024-02-28T00:52:51;9.20;92.68
67603;DHT22;54417;47.454;18.918;2024-02-28T00:58:01;9.18;92.75
67603;DHT22;54417;47.454;18.918;2024-02-28T01:03:10;9.05;93.21
67603;DHT22;54417;47.454;18.918;2024-02-28T01:08:17;8.96;93.27
67603;DHT22;54417;47.454;18.918;2024-02-28T01:13:27;8.90;93.36
67603;DHT22;54417;47.454;18.918;2024-02-28T01:18:36;8.98;93.67
67603;DHT22;54417;47.454;18.918;2024-02-28T01:23:40;9.02;93.59
67603;DHT22;54417;47.454;18.918;2024-02-28T01:28:45;9.06;93.66
67603;DHT22;54417;47.454;18.918;2024-02-28T01:33:49;9.05;93.55
67603;DHT22;54417;47.454;18.918;2024-02-28T01:38:53;9.03;93.60
67603;DHT22;54417;47.454;18.918;2024-02-28T01:43:58;9.03;93.44
67603;DHT22;54417;47.454;18.918;2024-02-28T01:49:02;8.95;93.57
67603;DHT22;54417;47.454;18.918;2024-02-28T01:54:11;9.00;93.43
67603;DHT22;54417;47.454;18.918;2024-02-28T01:59:17;8.79;94.23
67603;DHT22;54417;47.454;18.918;2024-02-28T02:04:27;8.75;94.04
67603;DHT22;54417;47.454;18.918;2024-02-28T02:09:31;8.79;93.60
67603;DHT22;54417;47.454;18.918;2024-02-28T02:14:38;8.88;93.24
67603;DHT22;54417;47.454;18.918;2024-02-28T02:19:47;8.93;92.92
67603;DHT22;54417;47.454;18.918;2024-02-28T02:24:57;8.95;92.72
67603;DHT22;54417;47.454;18.918;2024-02-28T02:30:06;8.99;92.69
67603;DHT22;54417;47.454;18.918;2024-02-28T02:35:15;9.08;92.41
67603;DHT22;54417;47.454;18.918;2024-02-28T02:40:20;9.08;92.07
67603;DHT22;54417;47.454;18.918;2024-02-28T02:45:29;9.22;91.45
67603;DHT22;54417;47.454;18.918;2024-02-28T02:50:38;9.36;90.49
67603;DHT22;54417;47.454;18.918;2024-02-28T02:55:43;9.29;90.85
67603;DHT22;54417;47.454;18.918;2024-02-28T03:00:46;9.23;91.01
67603;DHT22;54417;47.454;18.918;2024-02-28T03:05:50;9.27;90.96
67603;DHT22;54417;47.454;18.918;2024-02-28T03:10:55;9.23;91.01
67603;DHT22;54417;47.454;18.918;2024-02-28T03:16:05;9.20;91.09
67603;DHT22;54417;47.454;18.918;2024-02-28T03:21:10;9.19;91.18
67603;DHT22;54417;47.454;18.918;2024-02-28T03:26:15;9.19;91.19
67603;DHT22;54417;47.454;18.918;2024-02-28T03:31:23;9.13;91.25
67603;DHT22;54417;47.454;18.918;2024-02-28T03:36:27;9.08;91.47
67603;DHT22;54417;47.454;18.918;2024-02-28T03:41:38;9.18;90.47
67603;DHT22;54417;47.454;18.918;2024-02-28T03:46:47;9.33;89.87
67603;DHT22;54417;47.454;18.918;2024-02-28T03:51:55;9.36;89.77
67603;DHT22;54417;47.454;18.918;2024-02-28T03:57:06;9.41;89.29
67603;DHT22;54417;47.454;18.918;2024-02-28T04:02:14;9.41;89.24
67603;DHT22;54417;47.454;18.918;2024-02-28T04:07:18;9.48;89.46
67603;DHT22;54417;47.454;18.918;2024-02-28T04:12:28;9.44;89.55
67603;DHT22;54417;47.454;18.918;2024-02-28T04:17:32;9.44;89.39
67603;DHT22;54417;47.454;18.918;2024-02-28T04:22:36;9.44;89.39
67603;DHT22;54417;47.454;18.918;2024-02-28T04:27:41;9.41;89.41
67603;DHT22;54417;47.454;18.918;2024-02-28T04:32:51;9.41;89.25
67603;DHT22;54417;47.454;18.918;2024-02-28T04:38:00;9.44;89.15
67603;DHT22;54417;47.454;18.918;2024-02-28T04:43:10;9.40;89.01
67603;DHT22;54417;47.454;18.918;2024-02-28T04:48:18;9.40;89.36
67603;DHT22;54417;47.454;18.918;2024-02-28T04:53:28;9.40;88.95
67603;DHT22;54417;47.454;18.918;2024-02-28T04:58:38;9.39;89.08
67603;DHT22;54417;47.454;18.918;2024-02-28T05:03:42;9.36;88.77
67603;DHT22;54417;47.454;18.918;2024-02-28T05:08:45;9.36;88.55
67603;DHT22;54417;47.454;18.918;2024-02-28T05:13:55;9.34;89.07
67603;DHT22;54417;47.454;18.918;2024-02-28T05:19:04;9.24;89.45
67603;DHT22;54417;47.454;18.918;2024-02-28T05:24:13;9.30;88.95
67603;DHT22;54417;47.454;18.918;2024-02-28T05:29:18;9.20;89.31
67603;DHT22;54417;47.454;18.918;2024-02-28T05:34:27;9.27;89.04
67603;DHT22;54417;47.454;18.918;2024-02-28T05:39:36;9.33;88.15
67603;DHT22;54417;47.454;18.918;2024-02-28T05:44:46;9.40;88.09
67603;DHT22;54417;47.454;18.918;2024-02-28T05:49:55;9.40;88.05
67603;DHT22;54417;47.454;18.918;2024-02-28T05:55:06;9.50;87.52
67603;DHT22;54417;47.454;18.918;2024-02-28T06:00:12;9.52;87.62
67603;DHT22;54417;47.454;18.918;2024-02-28T06:05:16;9.61;86.73
67603;DHT22;54417;47.454;18.918;2024-02-28T06:10:20;9.64;86.81
67603;DHT22;54417;47.454;18.918;2024-02-28T06:15:30;9.74;86.41
67603;DHT22;54417;47.454;18.918;2024-02-28T06:20:39;9.82;86.12
67603;DHT22;54417;47.454;18.918;2024-02-28T06:25:49;9.92;85.84
67603;DHT22;54417;47.454;18.918;2024-02-28T06:30:54;9.87;85.71
67603;DHT22;54417;47.454;18.918;2024-02-28T06:35:58;9.95;85.23
67603;DHT22;54417;47.454;18.918;2024-02-28T06:41:02;9.89;85.00
67603;DHT22;54417;47.454;18.918;2024-02-28T06:46:13;9.87;85.51
67603;DHT22;54417;47.454;18.918;2024-02-28T06:51:16;9.81;86.41
67603;DHT22;54417;47.454;18.918;2024-02-28T06:56:20;9.94;86.44
67603;DHT22;54417;47.454;18.918;2024-02-28T07:01:25;10.08;86.40
67603;DHT22;54417;47.454;18.918;2024-02-28T07:06:34;10.30;85.53
67603;DHT22;54417;47.454;18.918;2024-02-28T07:11:43;10.46;84.92
67603;DHT22;54417;47.454;18.918;2024-02-28T07:16:53;10.67;83.26
67603;DHT22;54417;47.454;18.918;2024-02-28T07:22:03;10.77;82.77
67603;DHT22;54417;47.454;18.918;2024-02-28T07:27:08;11.00;81.77
67603;DHT22;54417;47.454;18.918;2024-02-28T07:32:13;10.98;81.23
67603;DHT22;54417;47.454;18.918;2024-02-28T07:37:22;11.15;79.85
67603;DHT22;54417;47.454;18.918;2024-02-28T07:42:25;11.24;79.49
67603;DHT22;54417;47.454;18.918;2024-02-28T07:47:37;11.29;78.76
67603;DHT22;54417;47.454;18.918;2024-02-28T07:52:46;11.38;79.31
67603;DHT22;54417;47.454;18.918;2024-02-28T07:57:55;11.47;78.27
67603;DHT22;54417;47.454;18.918;2024-02-28T08:03:05;11.69;77.99
67603;DHT22;54417;47.454;18.918;2024-02-28T08:08:09;11.55;77.62
67603;DHT22;54417;47.454;18.918;2024-02-28T08:13:17;11.66;77.93
67603;DHT22;54417;47.454;18.918;2024-02-28T08:18:24;11.63;77.90
67603;DHT22;54417;47.454;18.918;2024-02-28T08:23:33;11.53;77.53
67603;DHT22;54417;47.454;18.918;2024-02-28T08:28:37;11.63;78.21
67603;DHT22;54417;47.454;18.918;2024-02-28T08:33:43;11.80;76.61
67603;DHT22;54417;47.454;18.918;2024-02-28T08:38:52;12.11;76.31
67603;DHT22;54417;47.454;18.918;2024-02-28T08:44:01;12.16;76.08
67603;DHT22;54417;47.454;18.918;2024-02-28T08:49:11;12.46;74.52
67603;DHT22;54417;47.454;18.918;2024-02-28T08:54:15;12.65;73.99
67603;DHT22;54417;47.454;18.918;2024-02-28T08:59:19;12.85;74.29
67603;DHT22;54417;47.454;18.918;2024-02-28T09:04:29;13.07;73.29
67603;DHT22;54417;47.454;18.918;2024-02-28T09:09:33;13.21;72.39
67603;DHT22;54417;47.454;18.918;2024-02-28T09:14:45;13.34;71.51
67603;DHT22;54417;47.454;18.918;2024-02-28T09:19:53;13.50;70.87
67603;DHT22;54417;47.454;18.918;2024-02-28T09:25:02;13.40;71.92
67603;DHT22;54417;47.454;18.918;2024-02-28T09:30:07;13.28;71.86
67603;DHT22;54417;47.454;18.918;2024-02-28T09:35:17;13.55;71.43
67603;DHT22;54417;47.454;18.918;2024-02-28T09:40:21;13.79;70.76
67603;DHT22;54417;47.454;18.918;2024-02-28T09:45:30;13.90;69.41
67603;DHT22;54417;47.454;18.918;2024-02-28T09:50:42;14.10;69.63
67603;DHT22;54417;47.454;18.918;2024-02-28T09:55:51;14.13;68.47
67603;DHT22;54417;47.454;18.918;2024-02-28T10:00:59;14.37;68.80
67603;DHT22;54417;47.454;18.918;2024-02-28T10:06:05;14.29;67.94
67603;DHT22;54417;47.454;18.918;2024-02-28T10:11:16;14.32;68.66
67603;DHT22;54417;47.454;18.918;2024-02-28T10:16:25;14.47;69.01
67603;DHT22;54417;47.454;18.918;2024-02-28T10:21:31;14.60;67.99
67603;DHT22;54417;47.454;18.918;2024-02-28T10:26:42;14.71;68.68
67603;DHT22;54417;47.454;18.918;2024-02-28T10:31:51;14.77;67.70
67603;DHT22;54417;47.454;18.918;2024-02-28T10:37:01;14.68;68.25
67603;DHT22;54417;47.454;18.918;2024-02-28T10:42:11;14.87;68.04
67603;DHT22;54417;47.454;18.918;2024-02-28T10:47:21;15.03;67.38
67603;DHT22;54417;47.454;18.918;2024-02-28T10:52:33;15.19;66.66
67603;DHT22;54417;47.454;18.918;2024-02-28T10:57:43;15.12;66.91
67603;DHT22;54417;47.454;18.918;2024-02-28T11:02:49;15.06;66.20
67603;DHT22;54417;47.454;18.918;2024-02-28T11:08:01;15.49;66.14
67603;DHT22;54417;47.454;18.918;2024-02-28T11:13:10;15.39;65.80
67603;DHT22;54417;47.454;18.918;2024-02-28T11:18:24;15.40;65.76
67603;DHT22;54417;47.454;18.918;2024-02-28T11:23:37;15.35;66.37
67603;DHT22;54417;47.454;18.918;2024-02-28T11:28:45;15.57;65.15
67603;DHT22;54417;47.454;18.918;2024-02-28T11:33:54;15.70;64.67
67603;DHT22;54417;47.454;18.918;2024-02-28T11:38:59;15.84;64.96
67603;DHT22;54417;47.454;18.918;2024-02-28T11:44:09;15.98;64.24
67603;DHT22;54417;47.454;18.918;2024-02-28T11:49:18;16.15;63.73
67603;DHT22;54417;47.454;18.918;2024-02-28T11:54:28;16.25;64.79
67603;DHT22;54417;47.454;18.918;2024-02-28T11:59:34;16.12;63.52
67603;DHT22;54417;47.454;18.918;2024-02-28T12:04:39;16.09;64.33
67603;DHT22;54417;47.454;18.918;2024-02-28T12:09:50;16.08;63.64
67603;DHT22;54417;47.454;18.918;2024-02-28T12:14:59;16.15;64.13
67603;DHT22;54417;47.454;18.918;2024-02-28T12:20:04;16.12;63.74
67603;DHT22;54417;47.454;18.918;2024-02-28T12:25:15;16.24;63.62
67603;DHT22;54417;47.454;18.918;2024-02-28T12:30:25;16.38;62.67
67603;DHT22;54417;47.454;18.918;2024-02-28T12:35:34;16.56;62.28
67603;DHT22;54417;47.454;18.918;2024-02-28T12:40:40;16.76;62.52
67603;DHT22;54417;47.454;18.918;2024-02-28T12:45:49;16.63;61.73
67603;DHT22;54417;47.454;18.918;2024-02-28T12:50:58;16.80;61.76
67603;DHT22;54417;47.454;18.918;2024-02-28T12:56:08;17.04;60.90
67603;DHT22;54417;47.454;18.918;2024-02-28T13:01:12;17.08;61.00
67603;DHT22;54417;47.454;18.918;2024-02-28T13:06:16;17.20;60.38
67603;DHT22;54417;47.454;18.918;2024-02-28T13:11:26;17.23;61.50
67603;DHT22;54417;47.454;18.918;2024-02-28T13:16:30;17.14;60.60
67603;DHT22;54417;47.454;18.918;2024-02-28T13:21:34;17.07;60.76
67603;DHT22;54417;47.454;18.918;2024-02-28T13:26:40;17.21;60.92
67603;DHT22;54417;47.454;18.918;2024-02-28T13:31:44;17.27;60.11
67603;DHT22;54417;47.454;18.918;2024-02-28T13:36:53;17.36;60.28
67603;DHT22;54417;47.454;18.918;2024-02-28T13:41:58;17.53;61.32
67603;DHT22;54417;47.454;18.918;2024-02-28T13:47:03;17.46;60.75
67603;DHT22;54417;47.454;18.918;2024-02-28T13:52:07;17.55;60.85
67603;DHT22;54417;47.454;18.918;2024-02-28T13:57:17;17.39;60.75
67603;DHT22;54417;47.454;18.918;2024-02-28T14:02:26;17.61;60.21
67603;DHT22;54417;47.454;18.918;2024-02-28T14:07:30;17.62;60.34
67603;DHT22;54417;47.454;18.918;2024-02-28T14:12:35;17.71;59.77
67603;DHT22;54417;47.454;18.918;2024-02-28T14:17:43;17.53;60.41
67603;DHT22;54417;47.454;18.918;2024-02-28T14:22:52;17.63;60.57
67603;DHT22;54417;47.454;18.918;2024-02-28T14:27:57;17.59;60.45
67603;DHT22;54417;47.454;18.918;2024-02-28T14:33:01;17.46;59.66
67603;DHT22;54417;47.454;18.918;2024-02-28T14:38:09;17.34;60.48
67603;DHT22;54417;47.454;18.918;2024-02-28T14:43:19;17.35;61.06
67603;DHT22;54417;47.454;18.918;2024-02-28T14:48:23;17.18;60.74
67603;DHT22;54417;47.454;18.918;2024-02-28T14:53:32;16.97;61.92
67603;DHT22;54417;47.454;18.918;2024-02-28T14:58:42;16.80;62.55
67603;DHT22;54417;47.454;18.918;2024-02-28T15:03:51;16.72;62.33
67603;DHT22;54417;47.454;18.918;2024-02-28T15:08:59;16.51;62.62
67603;DHT22;54417;47.454;18.918;2024-02-28T15:14:12;16.19;64.02
67603;DHT22;54417;47.454;18.918;2024-02-28T15:19:20;16.02;63.98
67603;DHT22;54417;47.454;18.918;2024-02-28T15:24:29;15.88;64.74
67603;DHT22;54417;47.454;18.918;2024-02-28T15:29:34;15.64;65.62
67603;DHT22;54417;47.454;18.918;2024-02-28T15:34:41;15.57;65.49
67603;DHT22;54417;47.454;18.918;2024-02-28T15:39:50;15.36;66.14
67603;DHT22;54417;47.454;18.918;2024-02-28T15:45:01;15.12;67.20
67603;DHT22;54417;47.454;18.918;2024-02-28T15:50:10;15.01;67.72
67603;DHT22;54417;47.454;18.918;2024-02-28T15:55:19;14.80;68.85
67603;DHT22;54417;47.454;18.918;2024-02-28T16:00:30;14.68;69.26
67603;DHT22;54417;47.454;18.918;2024-02-28T16:05:34;14.40;70.45
67603;DHT22;54417;47.454;18.918;2024-02-28T16:10:38;14.22;71.40
67603;DHT22;54417;47.454;18.918;2024-02-28T16:15:48;14.03;71.98
67603;DHT22;54417;47.454;18.918;2024-02-28T16:20:57;13.92;72.68
67603;DHT22;54417;47.454;18.918;2024-02-28T16:26:06;13.61;73.81
67603;DHT22;54417;47.454;18.918;2024-02-28T16:31:12;13.41;74.85
67603;DHT22;54417;47.454;18.918;2024-02-28T16:36:16;13.17;75.72
67603;DHT22;54417;47.454;18.918;2024-02-28T16:41:19;13.14;75.90
67603;DHT22;54417;47.454;18.918;2024-02-28T16:46:29;13.14;76.08
67603;DHT22;54417;47.454;18.918;2024-02-28T16:51:38;13.03;76.53
67603;DHT22;54417;47.454;18.918;2024-02-28T16:56:44;12.70;77.54
67603;DHT22;54417;47.454;18.918;2024-02-28T17:01:55;12.32;78.77
67603;DHT22;54417;47.454;18.918;2024-02-28T17:07:04;12.20;80.18
67603;DHT22;54417;47.454;18.918;2024-02-28T17:12:13;12.13;80.52
67603;DHT22;54417;47.454;18.918;2024-02-28T17:17:23;12.10;80.58
67603;DHT22;54417;47.454;18.918;2024-02-28T17:22:27;12.17;80.51
67603;DHT22;54417;47.454;18.918;2024-02-28T17:27:36;12.10;80.85
67603;DHT22;54417;47.454;18.918;2024-02-28T17:32:44;12.10;81.10
67603;DHT22;54417;47.454;18.918;2024-02-28T17:37:50;11.89;81.80
67603;DHT22;54417;47.454;18.918;2024-02-28T17:42:59;11.55;82.40
67603;DHT22;54417;47.454;18.918;2024-02-28T17:48:09;11.26;83.70
67603;DHT22;54417;47.454;18.918;2024-02-28T17:53:15;11.02;84.37
67603;DHT22;54417;47.454;18.918;2024-02-28T17:58:23;10.75;85.17
67603;DHT22;54417;47.454;18.918;2024-02-28T18:03:35;10.49;85.60
67603;DHT22;54417;47.454;18.918;2024-02-28T18:08:39;10.30;85.89
67603;DHT22;54417;47.454;18.918;2024-02-28T18:13:47;10.06;87.09
67603;DHT22;54417;47.454;18.918;2024-02-28T18:18:57;9.84;88.17
67603;DHT22;54417;47.454;18.918;2024-02-28T18:24:07;9.70;88.95
67603;DHT22;54417;47.454;18.918;2024-02-28T18:29:10;9.51;88.71
67603;DHT22;54417;47.454;18.918;2024-02-28T18:34:16;9.37;89.52
67603;DHT22;54417;47.454;18.918;2024-02-28T18:39:20;9.34;90.56
67603;DHT22;54417;47.454;18.918;2024-02-28T18:44:23;9.41;89.77
67603;DHT22;54417;47.454;18.918;2024-02-28T18:49:34;9.26;90.68
67603;DHT22;54417;47.454;18.918;2024-02-28T18:54:42;9.10;90.75
67603;DHT22;54417;47.454;18.918;2024-02-28T18:59:51;9.18;91.42
67603;DHT22;54417;47.454;18.918;2024-02-28T19:04:58;9.08;91.03
67603;DHT22;54417;47.454;18.918;2024-02-28T19:10:02;8.92;91.44
67603;DHT22;54417;47.454;18.918;2024-02-28T19:15:12;8.71;91.86
67603;DHT22;54417;47.454;18.918;2024-02-28T19:20:18;8.62;92.23
67603;DHT22;54417;47.454;18.918;2024-02-28T19:25:26;8.47;93.06
67603;DHT22;54417;47.454;18.918;2024-02-28T19:30:35;8.40;93.05
67603;DHT22;54417;47.454;18.918;2024-02-28T19:35:40;8.31;93.46
67603;DHT22;54417;47.454;18.918;2024-02-28T19:40:46;8.27;93.25
67603;DHT22;54417;47.454;18.918;2024-02-28T19:45:54;8.14;93.83
67603;DHT22;54417;47.454;18.918;2024-02-28T19:51:05;8.07;94.36
67603;DHT22;54417;47.454;18.918;2024-02-28T19:56:13;7.97;94.47
67603;DHT22;54417;47.454;18.918;2024-02-28T20:01:23;7.96;94.33
67603;DHT22;54417;47.454;18.918;2024-02-28T20:06:33;7.82;94.69
67603;DHT22;54417;47.454;18.918;2024-02-28T20:11:49;7.72;95.19
67603;DHT22;54417;47.454;18.918;2024-02-28T20:16:57;7.63;95.80
67603;DHT22;54417;47.454;18.918;2024-02-28T20:22:08;7.68;95.79
67603;DHT22;54417;47.454;18.918;2024-02-28T20:27:17;7.76;95.64
67603;DHT22;54417;47.454;18.918;2024-02-28T20:32:26;7.66;95.50
67603;DHT22;54417;47.454;18.918;2024-02-28T20:37:36;7.56;95.57
67603;DHT22;54417;47.454;18.918;2024-02-28T20:42:49;7.44;95.29
67603;DHT22;54417;47.454;18.918;2024-02-28T20:47:58;7.30;96.08
67603;DHT22;54417;47.454;18.918;2024-02-28T20:53:08;7.14;95.92
67603;DHT22;54417;47.454;18.918;2024-02-28T20:58:16;7.10;96.17
67603;DHT22;54417;47.454;18.918;2024-02-28T21:03:25;7.03;95.84
67603;DHT22;54417;47.454;18.918;2024-02-28T21:08:35;7.03;96.19
67603;DHT22;54417;47.454;18.918;2024-02-28T21:13:44;6.90;95.99
67603;DHT22;54417;47.454;18.918;2024-02-28T21:18:53;6.77;96.00
67603;DHT22;54417;47.454;18.918;2024-02-28T21:23:58;6.66;96.51
67603;DHT22;54417;47.454;18.918;2024-02-28T21:29:08;6.64;96.71
67603;DHT22;54417;47.454;18.918;2024-02-28T21:34:16;6.53;96.79
67603;DHT22;54417;47.454;18.918;2024-02-28T21:39:28;6.48;97.06
67603;DHT22;54417;47.454;18.918;2024-02-28T21:44:39;6.49;97.54
67603;DHT22;54417;47.454;18.918;2024-02-28T21:49:48;6.45;97.20
67603;DHT22;54417;47.454;18.918;2024-02-28T21:54:53;6.42;97.06
67603;DHT22;54417;47.454;18.918;2024-02-28T21:59:57;6.41;96.84
67603;DHT22;54417;47.454;18.918;2024-02-28T22:05:06;6.28;96.75
67603;DHT22;54417;47.454;18.918;2024-02-28T22:10:11;6.22;96.56
67603;DHT22;54417;47.454;18.918;2024-02-28T22:15:15;6.10;96.45
67603;DHT22;54417;47.454;18.918;2024-02-28T22:20:25;6.10;96.36
67603;DHT22;54417;47.454;18.918;2024-02-28T22:25:35;5.98;96.46
67603;DHT22;54417;47.454;18.918;2024-02-28T22:30:44;5.96;96.49
67603;DHT22;54417;47.454;18.918;2024-02-28T22:35:52;5.81;96.73
67603;DHT22;54417;47.454;18.918;2024-02-28T22:41:03;5.74;97.14
67603;DHT22;54417;47.454;18.918;2024-02-28T22:46:07;5.79;97.11
67603;DHT22;54417;47.454;18.918;2024-02-28T22:51:16;5.69;97.45
67603;DHT22;54417;47.454;18.918;2024-02-28T22:56:26;5.65;98.06
67603;DHT22;54417;47.454;18.918;2024-02-28T23:01:30;5.63;97.92
67603;DHT22;54417;47.454;18.918;2024-02-28T23:06:38;5.60;97.72
67603;DHT22;54417;47.454;18.918;2024-02-28T23:11:57;5.59;97.81
67603;DHT22;54417;47.454;18.918;2024-02-28T23:17:11;5.62;97.54
67603;DHT22;54417;47.454;18.918;2024-02-28T23:22:19;5.50;97.30
67603;DHT22;54417;47.454;18.918;2024-02-28T23:27:24;5.32;97.74
67603;DHT22;54417;47.454;18.918;2024-02-28T23:32:33;5.28;98.29
67603;DHT22;54417;47.454;18.918;2024-02-28T23:37:42;5.28;98.20
67603;DHT22;54417;47.454;18.918;2024-02-28T23:42:52;5.28;98.39
67603;DHT22;54417;47.454;18.918;2024-02-28T23:48:01;5.28;98.93
67603;DHT22;54417;47.454;18.918;2024-02-28T23:53:05;5.25;98.44
67603;DHT22;54417;47.454;18.918;2024-02-28T23:58:16;5.17;98.49
